• Join FlightAware (Why Join?)
  • Login
  • US Flag 
10:02AM EDT


 

Airport Tracker/Info


-or-


 

Live Flight TrackerFlight Track Log ✈ EGC636 ✈ 12-May-2013 ✈ KVNY - KEYE

Flight Track Log - Related Links

Times and Time Zones

All times are in EDT time to prevent confusion due to time zone crossing. See the EGC636 flight status page for this flight to view local times or setup timezone preferences in your user account.

Time Position Orientation Groundspeed Altitude Reporting Facility
EDT Latitude Longitude Course Direction KTS MPH feet Rate Location/Type
05:43PM 34.1772 -118.4867 132° Southeast 170 196 41,000  Level Los Angeles Center
05:44PM 34.1500 -118.4500 132° Southeast 198 228 3,300 -21,900 Descending Southern California TRACON
05:45PM 34.1833 -118.4000 51° Northeast 232 267 5,600 2,400 Climbing Southern California TRACON
05:47PM 34.3575 -118.4575 345° North 271 312 11,900 2,640 Climbing Los Angeles Center
05:48PM 34.4250 -118.4128 29° Northeast 271 312 15,200 2,760 Climbing Los Angeles Center
05:49PM 34.4733 -118.3397 51° Northeast 281 323 17,700 2,220 Climbing Los Angeles Center
05:50PM 34.5175 -118.2606 56° Northeast 282 325 19,900 2,220 Climbing Los Angeles Center
05:51PM 34.5647 -118.1811 54° Northeast 290 334 22,300 1,800 Climbing Los Angeles Center
05:53PM 34.6185 -118.0402 77° East  Level FlightAware Approximate
05:53PM 34.6414 -117.9842 77° East 324 373 25,500  Level Los Angeles Center
05:54PM 34.6522 -117.8711 83° East 338 389 26,800 1,260 Climbing Los Angeles Center
05:55PM 34.6831 -117.7628 71° East 349 402 28,200 1,560 Climbing Los Angeles Center
05:56PM 34.7478 -117.6494 55° Northeast 343 395 30,100 1,680 Climbing Los Angeles Center
05:58PM 34.7989 -117.5547 57° Northeast 340 391 31,700 1,560 Climbing Los Angeles Center
05:59PM 34.8497 -117.4619 56° Northeast 334 384 33,400 1,620 Climbing Los Angeles Center
06:00PM 34.8997 -117.3719 56° Northeast 327 376 35,100 1,680 Climbing Los Angeles Center
06:01PM 34.9478 -117.2842 56° Northeast 316 364 36,900 1,680 Climbing Los Angeles Center
06:02PM 35.0036 -117.1825 56° Northeast 304 350 38,600 1,320 Climbing Los Angeles Center
06:03PM 35.0489 -117.1006 56° Northeast 296 341 39,700 960 Climbing Los Angeles Center
06:04PM 35.0942 -117.0169 56° Northeast 296 341 40,600 600 Climbing Los Angeles Center
06:05PM 35.1403 -116.9306 57° Northeast 302 348 41,000 180 Climbing Los Angeles Center
06:06PM 35.1894 -116.8394 57° Northeast 319 367 41,000  Level Los Angeles Center
06:07PM 35.2550 -116.7214 56° Northeast 345 397 41,000  Level Los Angeles Center
06:08PM 35.3092 -116.6186 57° Northeast 356 410 41,000  Level Los Angeles Center
06:09PM 35.3661 -116.5144 56° Northeast 366 421 41,000  Level Los Angeles Center
06:10PM 35.4233 -116.4061 57° Northeast 376 433 41,000  Level Los Angeles Center
06:11PM 35.4814 -116.2994 56° Northeast 380 437 41,000  Level Los Angeles Center
06:12PM 35.5489 -116.1736 57° Northeast 370 426 41,000  Level Los Angeles Center
06:13PM 35.6042 -116.0694 57° Northeast 366 421 41,000  Level Los Angeles Center
06:14PM 35.6697 -115.9467 57° Northeast 359 413 41,000  Level Los Angeles Center
06:15PM 35.7242 -115.8406 58° Northeast 358 412 41,000  Level Los Angeles Center
06:16PM 35.7778 -115.7394 57° Northeast 356 410 41,000  Level Los Angeles Center
06:17PM 35.8308 -115.6383 57° Northeast 352 405 41,000  Level Los Angeles Center
06:18PM 35.8936 -115.5192 57° Northeast 349 402 41,000  Level Los Angeles Center
06:19PM 35.9458 -115.4192 57° Northeast 348 400 41,000  Level Los Angeles Center
06:21PM 35.9983 -115.3169 58° Northeast 353 406 41,000  Level Los Angeles Center
06:22PM 36.0503 -115.2172 57° Northeast 350 403 41,000  Level Los Angeles Center
06:23PM 36.0942 -115.1108 63° Northeast 350 403 41,000  Level Los Angeles Center
06:24PM 36.1283 -114.9728 73° East 352 405 41,000  Level Los Angeles Center
06:25PM 36.1583 -114.8572 72° East 352 405 41,000  Level Los Angeles Center
06:26PM 36.1886 -114.7439 72° East 351 404 41,000  Level Los Angeles Center
06:27PM 36.2181 -114.6294 72° East 350 403 41,000  Level Los Angeles Center
06:28PM 36.2475 -114.5144 72° East 350 403 41,000  Level Los Angeles Center
06:29PM 36.2833 -114.3783 72° East 348 400 41,000  Level Los Angeles Center
06:30PM 36.3122 -114.2639 73° East 349 402 41,000  Level Los Angeles Center
06:31PM 36.3408 -114.1481 73° East 350 403 41,000  Level Los Angeles Center
06:32PM 36.3706 -114.0353 72° East 348 400 41,000  Level Los Angeles Center
06:33PM 36.3997 -113.9203 72° East 349 402 41,000  Level Los Angeles Center
06:34PM 36.4286 -113.8058 73° East 349 402 41,000  Level Los Angeles Center
06:35PM 36.4633 -113.6689 72° East 347 399 41,000  Level Los Angeles Center
06:36PM 36.4914 -113.5531 73° East 350 403 41,000  Level Los Angeles Center
06:37PM 36.5225 -113.4317 72° East 347 399 41,000 300 Level Los Angeles Center
06:38PM 36.5503 -113.3169 73° East 348 400 41,700 660 Climbing Los Angeles Center
06:39PM 36.5786 -113.2031 73° East 347 399 42,400 600 Climbing Los Angeles Center
06:40PM 36.6058 -113.0906 73° East 342 394 43,000 240 Climbing Los Angeles Center
06:41PM 36.6344 -112.9758 73° East 347 399 43,000  Level Los Angeles Center
06:42PM 36.6625 -112.8622 73° East 346 398 43,000  Level Los Angeles Center
06:43PM 36.6947 -112.7258 74° East 344 396 43,000  Level Los Angeles Center
06:44PM 36.7211 -112.6142 74° East 339 390 43,000  Level Los Angeles Center
06:45PM 36.7481 -112.5019 73° East 339 390 43,000  Level Los Angeles Center
06:46PM 36.7744 -112.3911 73° East 336 387 43,000  Level Los Angeles Center
06:47PM 36.8011 -112.2803 73° East 335 386 43,000  Level Los Angeles Center
06:48PM 36.8333 -112.1458 73° East 338 389 43,000  Level Los Angeles Center
06:49PM 36.8581 -112.0353 74° East 334 384 43,000  Level Los Angeles Center
06:50PM 36.8797 -111.9467 73° East 335 386 43,000  Level Denver Center
06:51PM 36.9069 -111.8347 73° East 336 387 43,000  Level Denver Center
06:52PM 36.9328 -111.7236 74° East 336 387 43,000 60 Level Denver Center
06:53PM 36.9647 -111.5897 73° East 336 387 43,200 480 Climbing Denver Center
06:54PM 36.9914 -111.4778 73° East 337 388 44,000 720 Climbing Denver Center
06:55PM 37.0158 -111.3694 74° East 330 380 44,700 480 Climbing Denver Center
06:57PM 37.0364 -111.2661 76° East 315 362 45,000 120 Climbing Denver Center
06:58PM 37.0611 -111.1561 74° East 328 377 45,000  Level Denver Center
06:59PM 37.0867 -111.0433 74° East 338 389 45,000  Level Denver Center
07:00PM 37.1158 -110.9094 75° East 334 384 45,000  Level Denver Center
07:01PM 37.1411 -110.7981 74° East 333 383 45,000  Level Denver Center
07:02PM 37.1656 -110.6867 75° East 332 382 45,000  Level Denver Center
07:03PM 37.1908 -110.5747 74° East 335 386 45,000  Level Denver Center
07:04PM 37.2139 -110.4636 75° East 333 383 45,000  Level Denver Center
07:05PM 37.2392 -110.3536 74° East 330 380 45,000  Level Denver Center
07:06PM 37.2633 -110.2414 75° East 333 383 45,000  Level Denver Center
07:07PM 37.2892 -110.1222 75° East 336 387 45,000  Level Denver Center
07:08PM 37.3161 -109.9956 75° East 337 388 45,000  Level Denver Center
07:09PM 37.3389 -109.8869 75° East 336 387 45,000  Level Denver Center
07:10PM 37.3664 -109.7594 75° East 337 388 45,000  Level Denver Center
07:11PM 37.3903 -109.6489 75° East 342 394 45,000  Level Denver Center
07:12PM 37.4175 -109.5208 75° East 339 390 45,000  Level Denver Center
07:13PM 37.4400 -109.4100 76° East 340 391 45,000  Level Denver Center
07:14PM 37.4672 -109.2806 75° East 341 392 45,000  Level Denver Center
07:15PM 37.4903 -109.1700 75° East 341 392 45,000  Level Denver Center
07:16PM 37.5122 -109.0578 76° East 343 395 45,000  Level Denver Center
07:17PM 37.5406 -108.9269 75° East 344 396 45,000  Level Denver Center
07:18PM 37.5586 -108.8308 77° East 350 403 45,000  Level Denver Center
07:19PM 37.5894 -108.6781 76° East 351 404 45,000  Level Denver Center
07:20PM 37.6128 -108.5631 76° East 353 406 45,000  Level Denver Center
07:21PM 37.6403 -108.4294 75° East 353 406 45,000  Level Denver Center
07:22PM 37.6631 -108.3125 76° East 354 407 45,000  Level Denver Center
07:23PM 37.6892 -108.1756 76° East 358 412 45,000  Level Denver Center
07:24PM 37.7122 -108.0586 76° East 359 413 45,000  Level Denver Center
07:25PM 37.7358 -107.9419 76° East 359 413 45,000  Level Denver Center
07:26PM 37.7622 -107.8039 76° East 360 414 45,000  Level Denver Center
07:27PM 37.7853 -107.6853 76° East 363 418 45,000  Level Denver Center
07:28PM 37.8122 -107.5467 76° East 363 418 45,000  Level Denver Center
07:30PM 37.8350 -107.4261 77° East 365 420 45,000  Level Denver Center
07:31PM 37.8611 -107.2883 76° East 362 417 45,000  Level Denver Center
07:32PM 37.8853 -107.1603 77° East 366 421 45,000  Level Denver Center
07:33PM 37.9075 -107.0422 77° East 361 415 45,000  Level Denver Center
07:34PM 37.9328 -106.9019 77° East 365 420 45,000  Level Denver Center
07:35PM 37.9556 -106.7833 76° East 364 419 45,000  Level Denver Center
07:36PM 37.9803 -106.6431 77° East 364 419 45,000  Level Denver Center
07:37PM 38.0022 -106.5236 77° East 363 418 45,000  Level Denver Center
07:38PM 38.0278 -106.3825 77° East 363 418 45,000  Level Denver Center
07:39PM 38.0494 -106.2628 77° East 363 418 45,000  Level Denver Center
07:40PM 38.0708 -106.1422 77° East 366 421 45,000  Level Denver Center
07:41PM 38.0953 -106.0011 78° East 366 421 45,000  Level Denver Center
07:42PM 38.1172 -105.8786 77° East 371 427 45,000  Level Denver Center
07:43PM 38.1428 -105.7369 77° East 370 426 45,000  Level Denver Center
07:44PM 38.1628 -105.6147 78° East 369 425 45,000  Level Denver Center
07:45PM 38.1894 -105.4708 77° East 374 430 45,000  Level Denver Center
07:46PM 38.2089 -105.3494 78° East 368 423 45,000  Level Denver Center
07:47PM 38.2333 -105.2047 78° East 373 429 45,000  Level Denver Center
07:48PM 38.2506 -105.1011 78° East 374 430 45,000  Level Denver Center
07:49PM 38.2786 -104.9369 78° East 371 427 45,000  Level Denver Center
07:50PM 38.2989 -104.8125 78° East 374 430 45,000  Level Denver Center
07:51PM 38.3203 -104.6847 78° East 380 437 45,000  Level Denver Center
07:52PM 38.3442 -104.5394 78° East 378 435 45,000  Level Denver Center
07:53PM 38.3642 -104.4119 79° East 381 438 45,000  Level Denver Center
07:54PM 38.3883 -104.2633 78° East 381 438 45,000  Level Denver Center
07:55PM 38.4083 -104.1383 78° East 379 436 45,000  Level Denver Center
07:56PM 38.4311 -103.9928 79° East 375 432 45,000  Level Denver Center
07:57PM 38.4508 -103.8667 79° East 376 433 45,000  Level Denver Center
07:58PM 38.4733 -103.7181 79° East 381 438 45,000  Level Denver Center
07:59PM 38.4928 -103.5914 79° East 379 436 45,000  Level Denver Center
08:01PM 38.5156 -103.4494 78° East 381 438 45,000  Level Denver Center
08:02PM 38.5344 -103.3214 79° East 383 441 45,000  Level Denver Center
08:03PM 38.5567 -103.1742 79° East 380 437 45,000  Level Denver Center
08:04PM 38.5772 -103.0411 79° East 378 435 45,000  Level Denver Center
08:05PM 38.5950 -102.9147 80° East 378 435 45,000  Level Denver Center
08:06PM 38.6178 -102.7681 79° East 376 433 45,000  Level Denver Center
08:07PM 38.6353 -102.6478 79° East 379 436 45,000  Level Denver Center
08:08PM 38.6561 -102.4994 80° East 380 437 45,000  Level Denver Center
08:09PM 38.6750 -102.3733 79° East 379 436 45,000  Level Denver Center
08:10PM 38.6994 -102.2019 80° East 383 441 45,000  Level Denver Center
08:11PM 38.7197 -102.0531 80° East 380 437 45,000  Level Denver Center
08:12PM 38.7375 -101.9258 80° East 380 437 45,000  Level Denver Center
08:13PM 38.7556 -101.7972 80° East 382 440 45,000  Level Denver Center
08:14PM 38.7764 -101.6469 80° East 384 442 45,000  Level Denver Center
08:15PM 38.7906 -101.5386 80° East 384 442 45,000  Level Denver Center
08:16PM 38.8139 -101.3650 80° East 385 443 45,000  Level Denver Center
08:17PM 38.8319 -101.2344 80° East 388 447 45,000  Level Denver Center
08:18PM 38.8514 -101.0822 81° East 386 444 45,000  Level Denver Center
08:19PM 38.8664 -100.9736 80° East 387 445 45,000  Level Denver Center
08:20PM 38.8856 -100.8208 81° East 387 445 45,000  Level Denver Center
08:21PM 38.9058 -100.6664 80° East 392 451 45,000  Level Denver Center
08:22PM 38.9225 -100.5344 81° East 390 449 45,000  Level Denver Center
08:23PM 38.9422 -100.3819 81° East 389 448 45,000  Level Denver Center
08:24PM 38.9589 -100.2506 81° East 388 447 45,000  Level Denver Center
08:25PM 38.9767 -100.0953 82° East 390 449 45,000  Level Denver Center
08:27PM 38.9928 -99.9614 81° East 394 453 45,000  Level Denver Center
08:28PM 39.0117 -99.8108 81° East 387 445 45,000  Level Denver Center
08:29PM 39.0278 -99.6794 81° East 386 444 45,000  Level Denver Center
08:30PM 39.0422 -99.5464 82° East 390 449 45,000  Level Denver Center
08:31PM 39.0603 -99.3911 81° East 392 451 45,000  Level Denver Center
08:32PM 39.0761 -99.2597 81° East 390 449 45,000  Level Denver Center
08:33PM 39.0936 -99.1033 82° East 394 453 45,000  Level Denver Center
08:34PM 39.1103 -98.9581 82° East 393 452 45,000  Level Denver Center
08:34PM 39.1214 -98.8561 82° East 395 455 45,000  Level Kansas City Center
08:35PM 39.1261 -98.8178 81° East 396 456 45,000  Level Denver Center
08:36PM 39.1414 -98.6767 82° East 398 458 45,000  Level Denver Center
08:37PM 39.1569 -98.5361 82° East 398 458 45,000  Level Denver Center
08:39PM 39.1836 -98.2889 82° East 402 463 45,000  Level Kansas City Center
08:40PM 39.1986 -98.1467 82° East 401 461 45,000  Level Kansas City Center
08:41PM 39.2131 -98.0047 82° East 400 460 45,000  Level Kansas City Center
08:42PM 39.2311 -97.8356 82° East 403 464 45,000  Level Kansas City Center
08:43PM 39.2467 -97.6814 83° East 397 457 45,000  Level Kansas City Center
08:44PM 39.2619 -97.5375 82° East 404 465 45,000  Level Kansas City Center
08:45PM 39.2756 -97.3944 83° East 398 458 45,000  Level Kansas City Center
08:46PM 39.2897 -97.2567 82° East 403 464 45,000  Level Kansas City Center
08:47PM 39.3044 -97.0958 83° East 404 465 45,000  Level Kansas City Center
08:48PM 39.3181 -96.9556 83° East 409 471 45,000  Level Kansas City Center
08:49PM 39.3306 -96.8147 83° East 412 474 45,000  Level Kansas City Center
08:50PM 39.3469 -96.6486 83° East 417 480 45,000  Level Kansas City Center
08:51PM 39.3603 -96.4950 84° East 419 482 45,000  Level Kansas City Center
08:52PM 39.3753 -96.3439 83° East 423 487 45,000  Level Kansas City Center
08:53PM 39.3881 -96.1925 84° East 423 487 45,000  Level Kansas City Center
08:54PM 39.4017 -96.0208 84° East 425 489 45,000  Level Kansas City Center
08:55PM 39.4139 -95.8758 84° East 424 488 45,000  Level Kansas City Center
08:56PM 39.4267 -95.7292 84° East 428 493 45,000  Level Kansas City Center
08:57PM 39.4411 -95.5581 84° East 426 490 45,000  Level Kansas City Center
08:58PM 39.4542 -95.3997 84° East 429 494 45,000  Level Kansas City Center
08:59PM 39.4675 -95.2356 84° East 428 493 45,000  Level Kansas City Center
09:00PM 39.4792 -95.0878 84° East 430 495 45,000  Level Kansas City Center
09:01PM 39.4906 -94.9397 84° East 429 494 45,000  Level Kansas City Center
09:02PM 39.5039 -94.7669 84° East 431 496 45,000  Level Kansas City Center
09:03PM 39.5153 -94.6178 84° East 433 498 45,000  Level Kansas City Center
09:04PM 39.5269 -94.4461 85° East 430 495 45,000  Level Kansas City Center
09:05PM 39.5375 -94.2981 85° East 430 495 45,000  Level Kansas City Center
09:06PM 39.5483 -94.1500 85° East 431 496 45,000  Level Kansas City Center
09:07PM 39.5606 -93.9772 85° East 430 495 45,000  Level Kansas City Center
09:08PM 39.5706 -93.8281 85° East 433 498 45,000  Level Kansas City Center
09:09PM 39.5814 -93.6564 85° East 434 499 45,000  Level Kansas City Center
09:11PM 39.5919 -93.5031 85° East 431 496 45,000  Level Kansas City Center
09:12PM 39.6025 -93.3497 85° East 432 497 45,000  Level Kansas City Center
09:13PM 39.6131 -93.1972 85° East 430 495 45,000  Level Kansas City Center
09:14PM 39.6219 -93.0428 86° East 434 499 45,000  Level Kansas City Center
09:15PM 39.6311 -92.8528 86° East 441 507 45,000  Level Kansas City Center
09:16PM 39.6411 -92.6992 85° East 438 504 45,000  Level Kansas City Center
09:17PM 39.6492 -92.5450 86° East 435 501 45,000  Level Kansas City Center
09:18PM 39.6578 -92.3906 86° East 435 501 45,000  Level Kansas City Center
09:19PM 39.6661 -92.2361 86° East 435 501 45,000  Level Kansas City Center
09:20PM 39.6753 -92.0514 86° East 433 498 45,000  Level Kansas City Center
09:21PM 39.6833 -91.8950 86° East 436 502 45,000  Level Kansas City Center
09:22PM 39.6908 -91.7411 86° East 436 502 45,000  Level Kansas City Center
09:23PM 39.6967 -91.5867 87° East 433 498 45,000  Level Kansas City Center
09:24PM 39.7036 -91.4317 87° East 434 499 45,000  Level Kansas City Center
09:25PM 39.7111 -91.2678 87° East 437 503 45,000  Level Kansas City Center
09:26PM 39.7169 -91.1122 87° East 434 499 45,000  Level Kansas City Center
09:27PM 39.7236 -90.9544 87° East 436 502 45,000 -540 Level Kansas City Center
09:28PM 39.7303 -90.7947 87° East 441 507 44,000 -1,680 Descending Kansas City Center
09:29PM 39.7372 -90.6022 87° East 444 511 41,600 -2,100 Descending Kansas City Center
09:30PM 39.7419 -90.4525 88° East 443 510 39,700 -1,920 Descending Kansas City Center
09:31PM 39.7478 -90.2958 87° East 439 505 37,700 -1,920 Descending Kansas City Center
09:32PM 39.7519 -90.1406 88° East 435 501 35,800 -1,320 Descending Kansas City Center
09:33PM 39.7567 -89.9911 88° East 425 489 35,000 -420 Descending Kansas City Center
09:34PM 39.7631 -89.8094 87° East 421 484 35,000  Level Kansas City Center
09:35PM 39.7683 -89.6492 87° East 435 501 35,000 -120 Level Kansas City Center
09:36PM 39.7722 -89.4936 88° East 435 501 34,800 -540 Descending Kansas City Center
09:37PM 39.7761 -89.3403 88° East 431 496 33,900 -1,080 Descending Kansas City Center
09:38PM 39.7806 -89.1847 88° East 431 496 32,600 -1,260 Descending Kansas City Center
09:39PM 39.7836 -89.0322 88° East 428 493 31,400 -960 Descending Kansas City Center
09:40PM 39.7864 -88.8756 89° East 432 497 30,700 -1,080 Descending Kansas City Center
09:41PM 39.7906 -88.7172 88° East 437 503 29,300 -1,680 Descending Kansas City Center
09:42PM 39.7950 -88.5239 88° East 445 512 27,300 -1,800 Descending Kansas City Center
09:43PM 39.7986 -88.3622 88° East 448 516 25,700 -1,620 Descending Kansas City Center
09:44PM 39.8025 -88.2019 88° East 446 513 24,100 -840 Descending Kansas City Center
09:45PM 39.8042 -88.0311 89° East 435 501 24,000 -120 Descending Kansas City Center
09:46PM 39.8028 -88.0078 94° East 434 499 24,000 -1,260 Level Indianapolis Center
09:47PM 39.8053 -87.8247 89° East 425 489 22,300 -1,800 Descending Indianapolis Center
09:48PM 39.8067 -87.6700 89° East 428 493 20,400 -1,920 Descending Indianapolis Center
09:49PM 39.8086 -87.5219 89° East 418 481 18,400 -1,920 Descending Indianapolis Center
09:50PM 39.8094 -87.3756 90° East 410 472 16,600 -1,740 Descending Indianapolis Center
09:51PM 39.8114 -87.2400 89° East 387 445 14,900 -1,680 Descending Indianapolis Center
09:52PM 39.8114 -87.1133 90° East 362 417 13,300 -1,380 Descending Indianapolis Center
09:53PM 39.8128 -86.9903 89° East 348 400 12,100 -1,080 Descending Indianapolis Center
09:54PM 39.8161 -86.8675 88° East 342 394 11,200 -1,320 Descending Indianapolis Center
09:55PM 39.8197 -86.7581 88° East 316 364 9,500 -1,920 Descending Indianapolis Center
09:56PM 39.8225 -86.6575 88° East 289 333 7,400 -1,800 Descending Indianapolis Center
09:57PM 39.8214 -86.5494 91° East 256 295 5,900 -1,620 Descending Indianapolis Center
09:58PM 39.8222 -86.4572 89° East 255 293 4,200 -1,080 Descending Indianapolis Center
09:59PM 39.8225 -86.3664 90° East 255 293 3,800 -420 Descending Indianapolis Center